Time;durP1;ratioP1;P1;durP2;ratioP2;P2;SDS_P1;SDS_P2;PMS_P1;PMS_P2;Temp;Humidity;BMP_temperature;BMP_pressure;BME280_temperature;BME280_humidity;BME280_pressure;Samples;Min_cycle;Max_cycle;Signal;HPM_P1;HPM_P2
2022/03/14 00:00:12;;;;;;;10.98;1.00;;;;;;;;;;4955809;29;20031;-76
2022/03/14 00:02:38;;;;;;;8.20;1.15;;;;;;;;;;4956222;29;20107;-77
2022/03/14 00:05:05;;;;;;;4.63;1.20;;;;;;;;;;4939764;28;20062;-77
2022/03/14 00:07:34;;;;;;;4.50;0.80;;;;;;;;;;4959702;29;20078;-77
2022/03/14 00:10:00;;;;;;;11.23;1.30;;;;;;;;;;4941916;29;20458;-76
2022/03/14 00:12:26;;;;;;;9.15;0.80;;;;;;;;;;4958266;29;20021;-76
2022/03/14 00:14:56;;;;;;;3.80;1.30;;;;;;;;;;4961704;28;20042;-77
2022/03/14 00:17:24;;;;;;;2.58;1.00;;;;;;;;;;4960931;28;20050;-77
2022/03/14 00:19:50;;;;;;;1.58;0.90;;;;;;;;;;4978133;28;20030;-75
2022/03/14 00:22:18;;;;;;;4.10;1.35;;;;;;;;;;4974451;28;20019;-80
2022/03/14 00:24:44;;;;;;;7.28;1.23;;;;;;;;;;4943061;29;20054;-79
2022/03/14 00:27:10;;;;;;;8.73;1.10;;;;;;;;;;4959730;29;20558;-77
2022/03/14 00:29:36;;;;;;;11.07;1.13;;;;;;;;;;4958936;29;20102;-75
2022/03/14 00:32:02;;;;;;;5.28;0.98;;;;;;;;;;4954129;28;20058;-73
2022/03/14 00:34:28;;;;;;;22.40;1.73;;;;;;;;;;4978859;28;20027;-79
2022/03/14 00:36:54;;;;;;;20.35;1.40;;;;;;;;;;4979436;28;20078;-77
2022/03/14 00:39:20;;;;;;;39.53;2.00;;;;;;;;;;4979439;28;20046;-77
2022/03/14 00:41:47;;;;;;;10.50;1.35;;;;;;;;;;4978885;28;20530;-77
2022/03/14 00:44:15;;;;;;;14.77;1.25;;;;;;;;;;4978739;28;20054;-76
2022/03/14 00:46:41;;;;;;;9.60;1.15;;;;;;;;;;4973862;28;20033;-73
2022/03/14 00:49:14;;;;;;;8.38;1.27;;;;;;;;;;4971827;28;20074;-76
2022/03/14 00:51:40;;;;;;;22.02;1.17;;;;;;;;;;4939098;29;20024;-79
2022/03/14 00:54:07;;;;;;;11.55;1.23;;;;;;;;;;4960182;28;20031;-77
2022/03/14 00:56:35;;;;;;;7.82;1.10;;;;;;;;;;4967448;28;20035;-78
2022/03/14 00:59:01;;;;;;;4.32;1.13;;;;;;;;;;4979701;28;20069;-77
2022/03/14 01:01:27;;;;;;;4.25;1.00;;;;;;;;;;4968490;28;20086;-80
2022/03/14 01:03:54;;;;;;;10.70;1.67;;;;;;;;;;4977646;28;20123;-79
2022/03/14 01:06:20;;;;;;;12.60;1.80;;;;;;;;;;4959965;29;20067;-77
2022/03/14 01:08:46;;;;;;;8.60;1.17;;;;;;;;;;4941507;29;20034;-75
2022/03/14 01:11:12;;;;;;;3.50;1.00;;;;;;;;;;4974832;28;20023;-77
2022/03/14 01:13:38;;;;;;;7.60;1.40;;;;;;;;;;4977094;28;20055;-75
2022/03/14 01:16:05;;;;;;;2.67;1.00;;;;;;;;;;4977327;28;20066;-76
2022/03/14 01:18:31;;;;;;;6.15;1.30;;;;;;;;;;4976375;28;20478;-77
2022/03/14 01:20:57;;;;;;;1.60;1.10;;;;;;;;;;4974058;28;20430;-76
2022/03/14 01:23:23;;;;;;;1.67;0.90;;;;;;;;;;4940785;29;20490;-78
2022/03/14 01:25:49;;;;;;;3.10;1.10;;;;;;;;;;4966617;28;20102;-79
2022/03/14 01:28:15;;;;;;;3.22;1.00;;;;;;;;;;4958719;28;20027;-75
2022/03/14 01:30:43;;;;;;;2.83;1.00;;;;;;;;;;4958984;29;20041;-78
2022/03/14 01:33:09;;;;;;;4.60;0.90;;;;;;;;;;4967993;28;20023;-78
2022/03/14 01:35:37;;;;;;;3.25;0.90;;;;;;;;;;4977708;28;20055;-79
2022/03/14 01:38:03;;;;;;;1.55;1.10;;;;;;;;;;4969593;28;20106;-78
2022/03/14 01:40:30;;;;;;;2.15;1.05;;;;;;;;;;4958473;29;20027;-78
2022/03/14 01:42:56;;;;;;;1.33;1.00;;;;;;;;;;4959351;29;20027;-77
2022/03/14 01:45:23;;;;;;;1.85;1.00;;;;;;;;;;4942955;28;20355;-72
2022/03/14 01:47:49;;;;;;;9.98;1.27;;;;;;;;;;4978161;28;20031;-78
2022/03/14 01:50:17;;;;;;;1.98;1.20;;;;;;;;;;4940062;29;20036;-76
2022/03/14 01:52:43;;;;;;;1.85;1.15;;;;;;;;;;4955513;28;20019;-77
2022/03/14 01:55:10;;;;;;;1.85;1.27;;;;;;;;;;4959086;29;20517;-78
2022/03/14 01:57:36;;;;;;;1.00;0.90;;;;;;;;;;4942104;29;20027;-79
2022/03/14 02:00:04;;;;;;;1.20;1.10;;;;;;;;;;4959606;29;20475;-79
2022/03/14 02:02:30;;;;;;;4.28;1.17;;;;;;;;;;4971540;28;20027;-76
2022/03/14 02:04:56;;;;;;;2.42;0.95;;;;;;;;;;4978388;28;20033;-77
2022/03/14 02:07:23;;;;;;;1.27;1.10;;;;;;;;;;4946973;29;20035;-75
2022/03/14 02:09:49;;;;;;;1.00;0.90;;;;;;;;;;4949294;28;20030;-79
2022/03/14 02:12:15;;;;;;;1.38;1.00;;;;;;;;;;4970905;28;20035;-81
2022/03/14 02:14:41;;;;;;;1.10;1.10;;;;;;;;;;4941867;29;20513;-77
2022/03/14 02:17:11;;;;;;;5.07;1.15;;;;;;;;;;4958459;29;20023;-75
2022/03/14 02:19:37;;;;;;;6.07;1.20;;;;;;;;;;4961213;28;20031;-79
2022/03/14 02:22:04;;;;;;;1.65;1.27;;;;;;;;;;4960701;28;20567;-82
2022/03/14 02:24:30;;;;;;;4.60;1.35;;;;;;;;;;4959277;29;20487;-79
2022/03/14 02:26:56;;;;;;;2.63;1.42;;;;;;;;;;4970518;28;20026;-76
2022/03/14 02:29:23;;;;;;;7.35;1.40;;;;;;;;;;4958517;28;20019;-75
2022/03/14 02:31:50;;;;;;;6.57;1.40;;;;;;;;;;4958777;28;20019;-72
2022/03/14 02:34:16;;;;;;;17.25;1.60;;;;;;;;;;4955577;29;20118;-74
2022/03/14 02:36:43;;;;;;;7.38;1.50;;;;;;;;;;4967648;28;20550;-76
2022/03/14 02:39:09;;;;;;;7.63;1.60;;;;;;;;;;4959492;29;20043;-79
2022/03/14 02:41:36;;;;;;;2.33;1.48;;;;;;;;;;4961133;28;20038;-77
2022/03/14 02:44:06;;;;;;;2.45;1.45;;;;;;;;;;4958919;29;20024;-77
2022/03/14 02:46:34;;;;;;;1.70;1.60;;;;;;;;;;4958312;29;20383;-79
2022/03/14 02:49:00;;;;;;;2.45;1.70;;;;;;;;;;4969465;28;20459;-78
2022/03/14 02:51:26;;;;;;;2.40;1.70;;;;;;;;;;4977501;28;20169;-78
2022/03/14 02:53:52;;;;;;;2.90;1.60;;;;;;;;;;4946609;29;20247;-75
2022/03/14 02:56:20;;;;;;;3.42;1.70;;;;;;;;;;4958057;29;20394;-77
2022/03/14 02:58:51;;;;;;;1.73;1.63;;;;;;;;;;4958489;29;20042;-76
2022/03/14 03:01:18;;;;;;;1.63;1.52;;;;;;;;;;4972383;28;20023;-77
2022/03/14 03:03:44;;;;;;;2.45;2.13;;;;;;;;;;4960287;28;20027;-78
2022/03/14 03:06:13;;;;;;;2.10;1.50;;;;;;;;;;4967648;28;20062;-78
2022/03/14 03:08:43;;;;;;;3.67;1.67;;;;;;;;;;4941571;29;20026;-78
2022/03/14 03:11:10;;;;;;;1.95;1.70;;;;;;;;;;4972097;28;20614;-79
2022/03/14 03:13:36;;;;;;;2.40;1.77;;;;;;;;;;4974629;28;20023;-79
2022/03/14 03:16:02;;;;;;;3.20;1.90;;;;;;;;;;4957836;29;20053;-79
2022/03/14 03:18:28;;;;;;;1.75;1.65;;;;;;;;;;4940622;29;20055;-78
2022/03/14 03:20:54;;;;;;;4.10;1.70;;;;;;;;;;4957464;28;20034;-79
2022/03/14 03:23:20;;;;;;;1.70;1.60;;;;;;;;;;4956895;29;20031;-77
2022/03/14 03:25:46;;;;;;;1.73;1.63;;;;;;;;;;4955920;29;20118;-74
2022/03/14 03:28:13;;;;;;;2.25;2.08;;;;;;;;;;4955932;29;20027;-77
2022/03/14 03:30:38;;;;;;;3.15;1.98;;;;;;;;;;4956160;29;20340;-76
2022/03/14 03:33:04;;;;;;;6.78;2.17;;;;;;;;;;4968758;28;20034;-75
2022/03/14 03:35:30;;;;;;;2.17;2.03;;;;;;;;;;4954318;28;20082;-77
2022/03/14 03:37:57;;;;;;;2.42;2.22;;;;;;;;;;4951392;29;20019;-79
2022/03/14 03:40:23;;;;;;;2.63;2.42;;;;;;;;;;4941296;28;20620;-75
2022/03/14 03:42:48;;;;;;;2.30;2.15;;;;;;;;;;4967212;28;20058;-77
2022/03/14 03:45:14;;;;;;;2.80;2.60;;;;;;;;;;4962338;28;20030;-76
2022/03/14 03:47:41;;;;;;;2.65;2.38;;;;;;;;;;4953851;29;20067;-72
2022/03/14 03:50:08;;;;;;;2.47;2.28;;;;;;;;;;4971969;28;20027;-76
2022/03/14 03:52:34;;;;;;;4.97;2.88;;;;;;;;;;4978667;28;20086;-75
2022/03/14 03:54:59;;;;;;;4.80;3.42;;;;;;;;;;4973807;28;20475;-76
2022/03/14 03:57:25;;;;;;;3.45;3.15;;;;;;;;;;4969081;28;20030;-75
2022/03/14 03:59:51;;;;;;;3.70;3.40;;;;;;;;;;4962370;28;20050;-75
2022/03/14 04:02:19;;;;;;;7.07;3.42;;;;;;;;;;4977495;28;20101;-78
2022/03/14 04:04:46;;;;;;;3.13;2.92;;;;;;;;;;4961497;28;20023;-77
2022/03/14 04:07:14;;;;;;;4.05;3.65;;;;;;;;;;4958584;29;20110;-76
2022/03/14 04:09:40;;;;;;;3.70;3.40;;;;;;;;;;4958202;29;20051;-75
2022/03/14 04:12:06;;;;;;;3.80;3.40;;;;;;;;;;4977075;28;20034;-75
2022/03/14 04:14:32;;;;;;;3.80;3.40;;;;;;;;;;4959699;28;20043;-76
2022/03/14 04:17:00;;;;;;;3.65;3.20;;;;;;;;;;4959333;29;20086;-75
2022/03/14 04:19:29;;;;;;;4.15;3.40;;;;;;;;;;4958287;28;20023;-74
2022/03/14 04:21:55;;;;;;;5.13;3.00;;;;;;;;;;4951159;28;20031;-74
2022/03/14 04:24:22;;;;;;;4.88;2.78;;;;;;;;;;4938906;29;20079;-75
2022/03/14 04:26:48;;;;;;;4.40;3.28;;;;;;;;;;4948417;28;20023;-75
2022/03/14 04:29:15;;;;;;;4.32;3.38;;;;;;;;;;4959647;28;20102;-75
2022/03/14 04:31:41;;;;;;;5.68;3.53;;;;;;;;;;4977268;28;20034;-80
2022/03/14 04:34:07;;;;;;;5.03;3.10;;;;;;;;;;4961055;29;20395;-78
2022/03/14 04:36:34;;;;;;;4.13;3.10;;;;;;;;;;4940202;29;20378;-77
2022/03/14 04:39:00;;;;;;;4.03;3.13;;;;;;;;;;4940502;29;20387;-78
2022/03/14 04:41:26;;;;;;;4.20;2.97;;;;;;;;;;4953439;28;20118;-76
2022/03/14 04:43:52;;;;;;;5.25;3.03;;;;;;;;;;4978132;28;20058;-73
2022/03/14 04:46:17;;;;;;;5.18;2.90;;;;;;;;;;4977792;28;20035;-75
2022/03/14 04:48:43;;;;;;;3.10;2.30;;;;;;;;;;4973589;28;20023;-75
2022/03/14 04:51:10;;;;;;;5.10;2.53;;;;;;;;;;4956010;28;20026;-75
2022/03/14 04:53:36;;;;;;;5.40;2.50;;;;;;;;;;4960478;28;20429;-75
2022/03/14 04:56:02;;;;;;;3.63;2.28;;;;;;;;;;4957299;29;20035;-73
2022/03/14 04:58:28;;;;;;;2.97;1.90;;;;;;;;;;4940010;29;20027;-75
2022/03/14 05:00:54;;;;;;;5.10;2.20;;;;;;;;;;4957220;29;20472;-74
2022/03/14 05:03:21;;;;;;;4.88;2.60;;;;;;;;;;4959744;29;20031;-80
2022/03/14 05:05:47;;;;;;;5.97;2.22;;;;;;;;;;4959984;29;20102;-80
2022/03/14 05:08:13;;;;;;;4.57;2.20;;;;;;;;;;4946098;28;20019;-80
2022/03/14 05:10:39;;;;;;;5.32;2.05;;;;;;;;;;4960110;28;20029;-76
2022/03/14 05:13:05;;;;;;;11.77;2.17;;;;;;;;;;4966808;28;20082;-76
2022/03/14 05:15:32;;;;;;;5.57;1.95;;;;;;;;;;4977816;28;20050;-76
2022/03/14 05:17:58;;;;;;;2.80;1.60;;;;;;;;;;4977642;28;20015;-77
2022/03/14 05:20:25;;;;;;;4.10;1.70;;;;;;;;;;4975365;28;20026;-75
2022/03/14 05:22:51;;;;;;;4.35;1.50;;;;;;;;;;4958757;29;20027;-76
2022/03/14 05:25:18;;;;;;;4.22;1.83;;;;;;;;;;4960203;28;20043;-79
2022/03/14 05:27:45;;;;;;;6.28;2.17;;;;;;;;;;4973451;28;20126;-80
2022/03/14 05:30:10;;;;;;;5.70;1.58;;;;;;;;;;4970891;28;20393;-80
2022/03/14 05:32:39;;;;;;;5.25;2.15;;;;;;;;;;4978871;28;20031;-79
2022/03/14 05:35:05;;;;;;;5.35;2.00;;;;;;;;;;4960825;28;20061;-75
2022/03/14 05:37:31;;;;;;;5.80;2.03;;;;;;;;;;4978135;28;20078;-77
2022/03/14 05:39:58;;;;;;;6.75;2.00;;;;;;;;;;4960460;28;20034;-77
2022/03/14 05:42:25;;;;;;;4.90;2.00;;;;;;;;;;4960423;28;20033;-77
2022/03/14 05:44:51;;;;;;;6.15;2.03;;;;;;;;;;4956841;29;20027;-76
2022/03/14 05:47:18;;;;;;;8.07;2.47;;;;;;;;;;4956406;29;20031;-76
2022/03/14 05:49:44;;;;;;;9.20;2.00;;;;;;;;;;4950657;28;20475;-76
2022/03/14 05:52:11;;;;;;;4.93;2.47;;;;;;;;;;4965892;28;20038;-75
2022/03/14 05:54:37;;;;;;;4.05;1.90;;;;;;;;;;4970611;28;20034;-74
2022/03/14 05:57:03;;;;;;;6.00;2.30;;;;;;;;;;4975995;28;20031;-73
2022/03/14 05:59:29;;;;;;;6.93;2.78;;;;;;;;;;4959792;28;20105;-75
2022/03/14 06:01:55;;;;;;;6.13;2.47;;;;;;;;;;4973674;28;20424;-74
2022/03/14 06:04:22;;;;;;;6.00;2.90;;;;;;;;;;4957766;28;20471;-79
2022/03/14 06:06:48;;;;;;;6.00;2.58;;;;;;;;;;4971352;28;20022;-79
2022/03/14 06:09:14;;;;;;;4.97;2.38;;;;;;;;;;4957194;29;20348;-79
2022/03/14 06:11:41;;;;;;;3.90;2.67;;;;;;;;;;4940210;29;20360;-76
2022/03/14 06:14:07;;;;;;;7.50;3.05;;;;;;;;;;4964091;28;20517;-76
2022/03/14 06:16:34;;;;;;;9.10;3.10;;;;;;;;;;4970669;28;20054;-76
2022/03/14 06:19:00;;;;;;;7.47;3.95;;;;;;;;;;4971706;28;20019;-75
2022/03/14 06:21:26;;;;;;;5.80;3.45;;;;;;;;;;4972806;28;20043;-76
2022/03/14 06:23:52;;;;;;;8.02;3.70;;;;;;;;;;4965238;28;20038;-73
2022/03/14 06:26:18;;;;;;;4.15;3.50;;;;;;;;;;4957605;28;20075;-76
2022/03/14 06:28:44;;;;;;;10.07;4.00;;;;;;;;;;4965098;28;20035;-76
2022/03/14 06:31:11;;;;;;;6.05;4.82;;;;;;;;;;4956067;29;20078;-76
2022/03/14 06:33:39;;;;;;;7.05;4.90;;;;;;;;;;4971061;28;20581;-76
2022/03/14 06:36:05;;;;;;;7.90;5.18;;;;;;;;;;4972638;28;20050;-72
2022/03/14 06:38:32;;;;;;;11.75;4.97;;;;;;;;;;4952278;28;20023;-73
2022/03/14 06:40:59;;;;;;;31.60;5.82;;;;;;;;;;4942257;29;20033;-76
2022/03/14 06:43:25;;;;;;;17.85;5.57;;;;;;;;;;4961555;28;20053;-68
2022/03/14 06:45:51;;;;;;;63.00;6.32;;;;;;;;;;4968801;28;20063;-70
2022/03/14 06:48:17;;;;;;;51.28;6.32;;;;;;;;;;4960768;28;20078;-71
2022/03/14 06:50:43;;;;;;;23.77;4.68;;;;;;;;;;4967426;28;20395;-69
2022/03/14 06:53:09;;;;;;;15.50;4.60;;;;;;;;;;4973102;28;20053;-69
2022/03/14 06:55:35;;;;;;;46.08;5.13;;;;;;;;;;4963218;28;20039;-69
2022/03/14 06:58:01;;;;;;;22.13;4.93;;;;;;;;;;4971944;28;20019;-71
2022/03/14 07:00:29;;;;;;;16.38;4.55;;;;;;;;;;4969749;28;20042;-69
2022/03/14 07:02:55;;;;;;;13.65;4.63;;;;;;;;;;4966782;28;20427;-70
2022/03/14 07:05:24;;;;;;;10.35;4.60;;;;;;;;;;4946174;28;20545;-69
2022/03/14 07:07:50;;;;;;;19.27;4.60;;;;;;;;;;4956446;28;20023;-70
2022/03/14 07:10:16;;;;;;;22.90;4.78;;;;;;;;;;4974040;28;20105;-68
2022/03/14 07:12:48;;;;;;;14.50;4.93;;;;;;;;;;4973245;28;20422;-74
2022/03/14 07:15:16;;;;;;;7.60;3.88;;;;;;;;;;4955699;28;20367;-66
2022/03/14 07:17:42;;;;;;;10.20;4.88;;;;;;;;;;4976986;28;20103;-70
2022/03/14 07:20:09;;;;;;;15.65;5.40;;;;;;;;;;4961700;28;20111;-83
2022/03/14 07:22:36;;;;;;;13.10;5.15;;;;;;;;;;4979236;28;20038;-82
2022/03/14 07:25:06;;;;;;;15.05;6.47;;;;;;;;;;4979656;28;20051;-77
2022/03/14 07:27:33;;;;;;;12.93;6.15;;;;;;;;;;4962561;28;20026;-79
2022/03/14 07:29:59;;;;;;;7.00;4.93;;;;;;;;;;4947094;29;20474;-71
2022/03/14 07:32:25;;;;;;;10.25;5.57;;;;;;;;;;4958746;29;20046;-77
2022/03/14 07:34:51;;;;;;;7.93;5.30;;;;;;;;;;4977737;28;20042;-74
2022/03/14 07:37:17;;;;;;;11.98;5.35;;;;;;;;;;4961101;28;20030;-78
2022/03/14 07:39:43;;;;;;;10.38;5.43;;;;;;;;;;4979221;28;20094;-80
2022/03/14 07:42:09;;;;;;;8.13;5.68;;;;;;;;;;4979100;28;20060;-75
2022/03/14 07:44:35;;;;;;;6.93;5.10;;;;;;;;;;4978746;28;20144;-77
2022/03/14 07:47:03;;;;;;;9.02;5.03;;;;;;;;;;4961658;28;20367;-78
2022/03/14 07:49:29;;;;;;;14.63;5.60;;;;;;;;;;4961017;28;20371;-74
2022/03/14 07:51:55;;;;;;;7.38;5.40;;;;;;;;;;4978603;28;20459;-77
2022/03/14 07:54:21;;;;;;;8.52;5.32;;;;;;;;;;4978789;28;20038;-81
2022/03/14 07:56:47;;;;;;;9.00;5.10;;;;;;;;;;4979231;28;20035;-75
2022/03/14 07:59:13;;;;;;;8.32;5.20;;;;;;;;;;4978812;28;20081;-77
2022/03/14 08:01:39;;;;;;;6.75;5.03;;;;;;;;;;4968664;28;20035;-80
2022/03/14 08:04:05;;;;;;;9.30;5.70;;;;;;;;;;4959523;29;20061;-83
2022/03/14 08:06:35;;;;;;;8.75;6.10;;;;;;;;;;4959667;29;20501;-81
2022/03/14 08:09:02;;;;;;;5.80;4.72;;;;;;;;;;4958732;29;20026;-72
2022/03/14 08:11:29;;;;;;;8.07;5.90;;;;;;;;;;4957751;29;20027;-73
2022/03/14 08:13:55;;;;;;;9.13;5.05;;;;;;;;;;4957564;29;20463;-73
2022/03/14 08:16:21;;;;;;;7.38;5.55;;;;;;;;;;4938850;29;20036;-73
2022/03/14 08:18:48;;;;;;;8.75;7.05;;;;;;;;;;4938479;29;20039;-73
2022/03/14 08:21:14;;;;;;;11.93;8.25;;;;;;;;;;4948197;29;20027;-73
2022/03/14 08:23:41;;;;;;;11.73;9.18;;;;;;;;;;4957705;29;20099;-73
2022/03/14 08:26:07;;;;;;;14.82;10.93;;;;;;;;;;4957111;28;20490;-73
2022/03/14 08:28:34;;;;;;;18.50;11.48;;;;;;;;;;4957649;29;20114;-73
2022/03/14 08:31:01;;;;;;;16.05;11.80;;;;;;;;;;4957407;29;20027;-73
2022/03/14 08:33:28;;;;;;;16.65;12.02;;;;;;;;;;4957196;29;20509;-74
2022/03/14 08:35:59;;;;;;;17.35;12.02;;;;;;;;;;4957546;29;20476;-73
2022/03/14 08:38:25;;;;;;;18.23;13.02;;;;;;;;;;4946396;29;20127;-74
2022/03/14 08:40:51;;;;;;;14.30;11.95;;;;;;;;;;4938015;29;20032;-74
2022/03/14 08:43:18;;;;;;;16.13;12.38;;;;;;;;;;4936862;29;20119;-74
2022/03/14 08:45:44;;;;;;;17.35;11.88;;;;;;;;;;4938252;29;20471;-73
2022/03/14 08:48:12;;;;;;;17.02;12.50;;;;;;;;;;4936974;29;20587;-75
2022/03/14 08:50:40;;;;;;;16.05;12.27;;;;;;;;;;4937941;29;20432;-74
2022/03/14 08:53:06;;;;;;;19.25;13.60;;;;;;;;;;4938055;29;20098;-74
2022/03/14 08:55:32;;;;;;;18.17;13.25;;;;;;;;;;4946303;29;20078;-73
2022/03/14 08:57:58;;;;;;;17.88;12.85;;;;;;;;;;4957024;29;20067;-74
2022/03/14 09:00:27;;;;;;;18.75;13.07;;;;;;;;;;4957084;29;20065;-73
2022/03/14 09:02:53;;;;;;;22.52;13.60;;;;;;;;;;4957008;29;20019;-74
2022/03/14 09:05:19;;;;;;;20.45;14.43;;;;;;;;;;4939954;29;20038;-74
2022/03/14 09:07:46;;;;;;;18.50;13.23;;;;;;;;;;4957051;29;20472;-73
2022/03/14 09:10:17;;;;;;;18.50;14.10;;;;;;;;;;4957126;29;20059;-74
2022/03/14 09:12:43;;;;;;;19.35;13.20;;;;;;;;;;4957049;29;20023;-74
2022/03/14 09:15:10;;;;;;;16.63;13.43;;;;;;;;;;4939941;29;20499;-73
2022/03/14 09:17:45;;;;;;;16.33;12.35;;;;;;;;;;4957076;29;20023;-73
2022/03/14 09:20:12;;;;;;;19.38;13.10;;;;;;;;;;4939727;29;20027;-74
2022/03/14 09:22:38;;;;;;;19.48;13.10;;;;;;;;;;4956732;29;20027;-73
2022/03/14 09:25:05;;;;;;;16.55;12.48;;;;;;;;;;4956384;29;20215;-74
2022/03/14 09:27:31;;;;;;;14.38;11.93;;;;;;;;;;4957008;29;20051;-73
2022/03/14 09:29:57;;;;;;;19.13;12.35;;;;;;;;;;4956542;29;20027;-72
2022/03/14 09:32:23;;;;;;;14.98;11.00;;;;;;;;;;4956522;29;20027;-74
2022/03/14 09:34:49;;;;;;;15.60;12.40;;;;;;;;;;4956572;29;20356;-73
2022/03/14 09:37:15;;;;;;;16.92;11.02;;;;;;;;;;4956346;29;20667;-74
2022/03/14 09:39:42;;;;;;;16.15;11.10;;;;;;;;;;4955482;28;20066;-73
2022/03/14 09:42:10;;;;;;;15.23;11.30;;;;;;;;;;4956246;29;20055;-73
2022/03/14 09:44:41;;;;;;;17.85;11.40;;;;;;;;;;4956409;29;20146;-74
2022/03/14 09:47:07;;;;;;;16.20;11.38;;;;;;;;;;4939174;29;20041;-74
2022/03/14 09:49:34;;;;;;;13.90;10.27;;;;;;;;;;4956286;28;20024;-74
2022/03/14 09:52:01;;;;;;;16.23;10.48;;;;;;;;;;4956097;29;20082;-74
2022/03/14 09:54:27;;;;;;;16.85;10.77;;;;;;;;;;4939018;29;20266;-73
2022/03/14 09:56:57;;;;;;;12.90;9.25;;;;;;;;;;4956448;29;20054;-73
2022/03/14 09:59:24;;;;;;;13.45;9.63;;;;;;;;;;4956399;29;20012;-73
2022/03/14 10:01:51;;;;;;;14.20;9.43;;;;;;;;;;4938963;29;20058;-73
2022/03/14 10:04:17;;;;;;;16.55;9.02;;;;;;;;;;4938901;29;20423;-73
2022/03/14 10:06:44;;;;;;;15.85;8.90;;;;;;;;;;4956302;29;20027;-74
2022/03/14 10:09:10;;;;;;;13.50;7.78;;;;;;;;;;4955918;29;20062;-73
2022/03/14 10:11:36;;;;;;;12.77;7.57;;;;;;;;;;4955954;29;20509;-73
2022/03/14 10:14:05;;;;;;;12.98;7.57;;;;;;;;;;4955784;29;20034;-73
2022/03/14 10:16:30;;;;;;;13.77;8.55;;;;;;;;;;4956050;29;20097;-73
2022/03/14 10:19:05;;;;;;;14.88;7.78;;;;;;;;;;4955915;28;20102;-73
2022/03/14 10:21:33;;;;;;;11.20;7.28;;;;;;;;;;4938701;29;20394;-73
2022/03/14 10:24:00;;;;;;;13.32;7.47;;;;;;;;;;4955487;29;20102;-74
2022/03/14 10:26:29;;;;;;;12.00;6.93;;;;;;;;;;4955554;29;20384;-74
2022/03/14 10:28:56;;;;;;;12.85;7.00;;;;;;;;;;4955607;29;20031;-73
2022/03/14 10:31:29;;;;;;;12.35;7.53;;;;;;;;;;4955436;29;20427;-74
2022/03/14 10:34:04;;;;;;;12.65;6.97;;;;;;;;;;4955787;29;20030;-74
2022/03/14 10:36:49;;;;;;;15.35;6.88;;;;;;;;;;4955529;29;20031;-74
2022/03/14 10:39:15;;;;;;;13.65;6.55;;;;;;;;;;4955604;29;20019;-73
2022/03/14 10:41:41;;;;;;;13.68;6.93;;;;;;;;;;4955253;29;20460;-73
2022/03/14 10:44:08;;;;;;;12.38;6.95;;;;;;;;;;4955501;29;20031;-73
2022/03/14 10:46:37;;;;;;;13.88;8.07;;;;;;;;;;4938200;29;20027;-74
2022/03/14 10:49:09;;;;;;;10.75;6.22;;;;;;;;;;4955268;28;20035;-73
2022/03/14 10:51:50;;;;;;;11.75;7.53;;;;;;;;;;4938246;29;20067;-74
2022/03/14 10:54:16;;;;;;;11.15;6.95;;;;;;;;;;4955213;29;20027;-74
2022/03/14 10:56:59;;;;;;;13.63;7.30;;;;;;;;;;4955234;29;20024;-73
2022/03/14 10:59:37;;;;;;;13.90;7.45;;;;;;;;;;4955103;29;20023;-73
2022/03/14 11:02:04;;;;;;;12.90;7.82;;;;;;;;;;4955121;29;20028;-74
2022/03/14 11:04:40;;;;;;;14.25;7.60;;;;;;;;;;4955153;29;20081;-74
2022/03/14 11:07:06;;;;;;;11.10;7.38;;;;;;;;;;4955187;29;20098;-74
2022/03/14 11:09:45;;;;;;;13.60;7.20;;;;;;;;;;4955202;29;20114;-74
2022/03/14 11:12:13;;;;;;;12.75;7.55;;;;;;;;;;4954999;29;20034;-73
2022/03/14 11:14:39;;;;;;;20.17;8.05;;;;;;;;;;4954999;29;20027;-73
2022/03/14 11:17:13;;;;;;;13.45;8.00;;;;;;;;;;4937813;29;20031;-73
2022/03/14 11:19:39;;;;;;;20.15;7.70;;;;;;;;;;4954617;28;20031;-74
2022/03/14 11:22:10;;;;;;;14.10;7.68;;;;;;;;;;4954249;29;20034;-74
2022/03/14 11:24:36;;;;;;;14.75;8.13;;;;;;;;;;4937585;29;20082;-74
2022/03/14 11:27:03;;;;;;;15.93;8.45;;;;;;;;;;4937687;29;20130;-74
2022/03/14 11:29:32;;;;;;;17.95;7.57;;;;;;;;;;4954966;29;20035;-74
2022/03/14 11:31:58;;;;;;;12.40;7.97;;;;;;;;;;4954804;29;20494;-74
2022/03/14 11:34:26;;;;;;;15.90;7.72;;;;;;;;;;4969528;28;20136;-73
2022/03/14 11:36:53;;;;;;;13.23;7.55;;;;;;;;;;4974145;28;20038;-74
2022/03/14 11:39:20;;;;;;;16.13;8.18;;;;;;;;;;4974094;28;20113;-74
2022/03/14 11:41:46;;;;;;;13.85;7.93;;;;;;;;;;4956735;28;20886;-74
2022/03/14 11:44:13;;;;;;;13.98;7.43;;;;;;;;;;4974017;28;20034;-74
2022/03/14 11:46:39;;;;;;;18.10;7.57;;;;;;;;;;4956877;28;20085;-73
2022/03/14 11:49:15;;;;;;;14.63;7.20;;;;;;;;;;4973982;28;20034;-74
2022/03/14 11:51:41;;;;;;;9.57;6.90;;;;;;;;;;4956592;28;20026;-73
2022/03/14 11:54:15;;;;;;;14.60;6.88;;;;;;;;;;4973788;28;20023;-73
2022/03/14 11:56:57;;;;;;;16.17;6.97;;;;;;;;;;4974031;28;20054;-74
2022/03/14 11:59:30;;;;;;;13.13;6.87;;;;;;;;;;4973774;28;20049;-74
2022/03/14 12:02:00;;;;;;;11.35;6.38;;;;;;;;;;4975329;28;20462;-73
2022/03/14 12:04:32;;;;;;;11.07;6.13;;;;;;;;;;4960232;28;20545;-72
2022/03/14 12:07:11;;;;;;;18.60;6.80;;;;;;;;;;4960850;28;20127;-73
2022/03/14 12:09:38;;;;;;;12.35;5.68;;;;;;;;;;4977487;28;20070;-73
2022/03/14 12:12:22;;;;;;;11.15;5.43;;;;;;;;;;4977427;28;20022;-73
2022/03/14 12:14:51;;;;;;;11.60;5.40;;;;;;;;;;4977244;28;20027;-73
2022/03/14 12:17:17;;;;;;;11.70;5.30;;;;;;;;;;4977618;28;20030;-73
2022/03/14 12:19:44;;;;;;;12.65;4.80;;;;;;;;;;4977298;28;20098;-73
2022/03/14 12:22:16;;;;;;;12.27;4.85;;;;;;;;;;4976995;28;20034;-73
2022/03/14 12:24:49;;;;;;;9.07;5.07;;;;;;;;;;4976940;28;20173;-74
2022/03/14 12:27:20;;;;;;;15.30;5.20;;;;;;;;;;4977439;28;20037;-73
2022/03/14 12:29:46;;;;;;;10.07;4.75;;;;;;;;;;4977130;28;20364;-74
2022/03/14 12:32:31;;;;;;;10.20;4.80;;;;;;;;;;4977093;28;20036;-73
2022/03/14 12:35:03;;;;;;;11.10;4.95;;;;;;;;;;4977075;28;20031;-73
2022/03/14 12:37:34;;;;;;;12.70;5.17;;;;;;;;;;4976965;28;20035;-73
2022/03/14 12:40:00;;;;;;;9.32;4.32;;;;;;;;;;4977076;28;20139;-74
2022/03/14 12:42:26;;;;;;;12.25;4.45;;;;;;;;;;4959443;28;20118;-74
2022/03/14 12:45:11;;;;;;;9.98;5.07;;;;;;;;;;4977087;28;20030;-72
2022/03/14 12:47:41;;;;;;;12.02;5.25;;;;;;;;;;4976725;28;20035;-73
2022/03/14 12:50:07;;;;;;;12.43;4.90;;;;;;;;;;4976819;28;20026;-73
2022/03/14 12:52:53;;;;;;;12.38;4.82;;;;;;;;;;4976446;28;20598;-74
2022/03/14 12:55:20;;;;;;;12.18;4.57;;;;;;;;;;4976601;28;20486;-73
2022/03/14 12:57:52;;;;;;;11.75;5.03;;;;;;;;;;4959469;28;20057;-73
2022/03/14 13:00:18;;;;;;;10.43;4.73;;;;;;;;;;4976882;28;20062;-73
2022/03/14 13:02:44;;;;;;;11.05;4.63;;;;;;;;;;4976660;28;20261;-73
2022/03/14 13:05:11;;;;;;;9.68;4.25;;;;;;;;;;4976284;28;20015;-75
2022/03/14 13:07:37;;;;;;;7.40;3.65;;;;;;;;;;4976398;28;20023;-74
2022/03/14 13:10:03;;;;;;;8.25;3.65;;;;;;;;;;4976243;28;20023;-74
2022/03/14 13:12:30;;;;;;;15.82;4.72;;;;;;;;;;4975800;28;20110;-74
2022/03/14 13:15:12;;;;;;;11.85;4.05;;;;;;;;;;4958264;28;20035;-73
2022/03/14 13:17:46;;;;;;;11.63;4.15;;;;;;;;;;4959099;28;20176;-73
2022/03/14 13:20:28;;;;;;;12.05;4.00;;;;;;;;;;4976080;28;20431;-74
2022/03/14 13:22:55;;;;;;;12.18;4.05;;;;;;;;;;4975979;28;20061;-74
2022/03/14 13:25:31;;;;;;;9.30;3.67;;;;;;;;;;4976039;28;20050;-73
2022/03/14 13:27:57;;;;;;;15.05;4.25;;;;;;;;;;4975987;28;20069;-73
2022/03/14 13:30:23;;;;;;;13.15;4.20;;;;;;;;;;4958802;28;20027;-74
2022/03/14 13:32:49;;;;;;;18.45;4.43;;;;;;;;;;4975820;28;20081;-73
2022/03/14 13:35:16;;;;;;;10.20;3.17;;;;;;;;;;4975833;28;20042;-74
2022/03/14 13:37:45;;;;;;;13.23;4.00;;;;;;;;;;4975909;28;20474;-73
2022/03/14 13:40:21;;;;;;;9.55;3.70;;;;;;;;;;4958492;28;20031;-74
2022/03/14 13:42:47;;;;;;;13.90;4.25;;;;;;;;;;4975718;28;20053;-73
2022/03/14 13:45:13;;;;;;;12.85;3.80;;;;;;;;;;4975727;28;20030;-73
2022/03/14 13:47:40;;;;;;;8.68;3.05;;;;;;;;;;4975866;28;20031;-74
2022/03/14 13:50:06;;;;;;;13.00;3.72;;;;;;;;;;4958207;28;20062;-74
2022/03/14 13:52:32;;;;;;;14.43;4.18;;;;;;;;;;4975724;28;20042;-74
2022/03/14 13:54:59;;;;;;;20.80;4.28;;;;;;;;;;4975724;28;20031;-74
2022/03/14 13:57:25;;;;;;;14.10;3.85;;;;;;;;;;4975613;28;20053;-74
2022/03/14 13:59:51;;;;;;;13.07;4.03;;;;;;;;;;4975608;28;20035;-74
2022/03/14 14:02:34;;;;;;;12.68;3.78;;;;;;;;;;4975662;28;20054;-74
2022/03/14 14:05:07;;;;;;;13.32;3.67;;;;;;;;;;4975329;28;20638;-74
2022/03/14 14:07:34;;;;;;;;;;;;;;;;;;4975609;28;20035;-75
2022/03/14 14:10:01;;;;;;;10.45;2.97;;;;;;;;;;4975438;28;19906;-74
2022/03/14 14:12:31;;;;;;;13.77;3.67;;;;;;;;;;4975210;28;20054;-73
2022/03/14 14:15:01;;;;;;;10.68;2.70;;;;;;;;;;4975332;28;20035;-73
2022/03/14 14:17:34;;;;;;;11.27;3.00;;;;;;;;;;4957820;28;20386;-74
2022/03/14 14:20:03;;;;;;;14.55;3.25;;;;;;;;;;4975267;28;20030;-74
2022/03/14 14:22:29;;;;;;;10.18;2.42;;;;;;;;;;4974753;28;20472;-74
2022/03/14 14:24:55;;;;;;;13.50;3.00;;;;;;;;;;4974358;28;20435;-74
2022/03/14 14:27:26;;;;;;;9.52;2.90;;;;;;;;;;4957389;28;20031;-73
2022/03/14 14:29:59;;;;;;;9.75;2.70;;;;;;;;;;4974882;28;20023;-73
2022/03/14 14:32:26;;;;;;;9.95;2.78;;;;;;;;;;4957509;28;20089;-73
2022/03/14 14:34:52;;;;;;;14.68;2.95;;;;;;;;;;4974757;28;20101;-74
2022/03/14 14:37:18;;;;;;;13.05;2.78;;;;;;;;;;4974705;28;20117;-74